ニジネヴァルトフスク の空港の天気 - METARとTAF

Nizhnevartovsk ( USNN / NJC ) - ロシア ニジネヴァルトフスク
飛行場実況気象(Metar)
観測時間12/16 00:00 YEKT (12/15 19:00 UTC)
風向・風速南西 5m/s
視程10km以上
天気現象弱い雪
全天の4割程度の雲 雲底高度 340m
気温-6℃
湿度93%
気圧1029hPa
METARUSNN 151900Z 23005MPS 9999 -SN SCT011 M06/M07 Q1029 R21/420436 NOSIG RMK QFE767
過去の天気等 Google飛行場航空写真 Wunderground天気予報

過去48時間のMETAR

飛行場予報(TAF)
発表時間: 12/15 22:00 YEKT (12/15 17:00 UTC)
予報対象時間: 15日23時 YEKT ~ 16日23時 YEKT
風向・風速南西 6m/s
視程10km以上
全天を覆う雲 雲底高度 300m
15日23時 YEKT ~ 16日8時 YEKT に一時的に
視程5,000m
天気現象弱い雪
全天の8割程度の雲 雲底高度 210m
16日10時 YEKT ~ 16日11時 YEKT に徐々に
風向・風速南西 3m/s
全天の4割程度の雲 雲底高度 610m
全天の8割程度の雲 雲底高度 1,520m
TAF USNN 151700Z 1518/1618 22006MPS 9999 OVC010
TEMPO 1518/1603 5000 -SN BKN007
BECMG 1605/1606 23003MPS SCT020 BKN050